Time;durP1;ratioP1;P1;durP2;ratioP2;P2;SDS_P1;SDS_P2;PMS_P1;PMS_P2;Temp;Humidity;BMP_temperature;BMP_pressure;BME280_temperature;BME280_humidity;BME280_pressure;Samples;Min_cycle;Max_cycle;Signal;HPM_P1;HPM_P2
2024/01/02 00:01:34;;;;;;;38.95;21.23;;;;;;;-142.57;100.00;56137.50;5093613;28;20040;-78
2024/01/02 00:04:00;;;;;;;37.63;19.70;;;;;;;-142.57;100.00;56169.81;5089656;28;20040;-79
2024/01/02 00:06:25;;;;;;;36.30;17.67;;;;;;;-142.57;100.00;56165.78;5091566;28;20404;-79
2024/01/02 00:08:51;;;;;;;34.75;17.73;;;;;;;-142.57;100.00;56131.44;5084075;28;20028;-77
2024/01/02 00:11:16;;;;;;;31.88;17.27;;;;;;;-142.57;100.00;56141.53;5075938;28;20461;-77
2024/01/02 00:13:42;;;;;;;33.60;17.17;;;;;;;-142.57;100.00;56147.59;5077195;28;20051;-76
2024/01/02 00:16:07;;;;;;;28.63;16.88;;;;;;;-142.57;100.00;56165.78;5077611;28;20024;-78
2024/01/02 00:18:33;;;;;;;32.20;17.30;;;;;;;-142.57;100.00;56151.63;5074089;28;20025;-79
2024/01/02 00:20:59;;;;;;;32.75;16.50;;;;;;;-142.57;100.00;56137.50;5080995;28;20054;-78
2024/01/02 00:23:24;;;;;;;36.47;16.42;;;;;;;-142.57;100.00;56157.69;5073854;28;20123;-78
2024/01/02 00:25:50;;;;;;;31.77;15.40;;;;;;;-142.57;100.00;56133.44;5076488;28;20063;-77
2024/01/02 00:28:17;;;;;;;32.95;15.98;;;;;;;-142.57;100.00;56084.94;5074867;28;20428;-77
2024/01/02 00:30:43;;;;;;;27.42;15.52;;;;;;;-142.57;100.00;56060.69;5078740;28;20028;-80
2024/01/02 00:33:09;;;;;;;36.70;16.40;;;;;;;-142.57;100.00;56109.19;5080109;28;20028;-77
2024/01/02 00:35:34;;;;;;;96.60;53.78;;;;;;;-142.57;100.00;56072.81;5078705;28;20040;-79
2024/01/02 00:38:00;;;;;;;29.98;16.13;;;;;;;-142.57;100.00;56099.09;5089973;28;20047;-79
2024/01/02 00:40:26;;;;;;;45.67;15.35;;;;;;;-142.57;100.00;56115.25;5077976;28;20121;-78
2024/01/02 00:42:52;;;;;;;22.23;13.60;;;;;;;-142.57;100.00;56109.19;5088163;28;20475;-78
2024/01/02 00:45:17;;;;;;;41.97;16.35;;;;;;;-142.57;100.00;56074.84;5090224;28;20027;-77
2024/01/02 00:47:43;;;;;;;42.75;15.68;;;;;;;-142.57;100.00;56058.69;5076979;28;20042;-77
2024/01/02 00:50:09;;;;;;;26.75;14.35;;;;;;;-142.57;100.00;56084.94;5086232;28;20487;-78
2024/01/02 00:52:35;;;;;;;54.35;15.27;;;;;;;-142.57;100.00;56044.53;5084274;28;20166;-80
2024/01/02 00:55:01;;;;;;;29.38;15.68;;;;;;;-142.57;100.00;56084.94;5088244;28;20119;-79
2024/01/02 00:57:27;;;;;;;34.55;15.20;;;;;;;-142.57;100.00;56109.19;5079616;28;20032;-78
2024/01/02 00:59:52;;;;;;;28.67;14.27;;;;;;;-142.57;100.00;56137.50;5084966;28;20064;-78
2024/01/02 01:02:18;;;;;;;23.27;14.82;;;;;;;-142.57;100.00;56086.97;5074087;28;20041;-79
2024/01/02 01:04:45;;;;;;;31.40;15.77;;;;;;;-142.57;100.00;56072.81;5078758;28;20036;-79
2024/01/02 01:07:11;;;;;;;31.38;14.20;;;;;;;-142.57;100.00;56040.50;5084360;28;20056;-80
2024/01/02 01:09:36;;;;;;;34.03;14.68;;;;;;;-142.57;100.00;56068.78;5084564;28;20060;-77
2024/01/02 01:12:03;;;;;;;34.33;13.88;;;;;;;-142.57;100.00;56028.38;5073061;28;20032;-79
2024/01/02 01:14:28;;;;;;;45.85;13.75;;;;;;;-142.57;100.00;56012.19;5082249;28;20489;-79
2024/01/02 01:16:54;;;;;;;27.38;13.95;;;;;;;-142.57;100.00;56028.38;5080555;28;20024;-79
2024/01/02 01:19:20;;;;;;;26.52;13.52;;;;;;;-142.57;100.00;56093.03;5075971;28;20047;-76
2024/01/02 01:21:45;;;;;;;51.35;15.10;;;;;;;-142.57;100.00;56042.50;5079848;28;20144;-77
2024/01/02 01:24:11;;;;;;;32.85;15.50;;;;;;;-142.57;100.00;56054.63;5091573;28;20044;-77
2024/01/02 01:26:36;;;;;;;63.65;18.08;;;;;;;-142.57;100.00;56014.22;5088710;28;20059;-78
2024/01/02 01:29:02;;;;;;;96.28;43.17;;;;;;;-142.57;100.00;56006.13;5078048;28;20020;-79
2024/01/02 01:31:28;;;;;;;32.13;17.10;;;;;;;-142.57;100.00;56084.94;5081143;28;20485;-78
2024/01/02 01:33:54;;;;;;;35.40;17.30;;;;;;;-142.57;100.00;56024.31;5073884;28;20128;-78
2024/01/02 01:36:19;;;;;;;36.78;18.00;;;;;;;-142.57;100.00;56018.25;5073909;28;21550;-82
2024/01/02 01:38:45;;;;;;;44.10;18.27;;;;;;;-142.57;100.00;56034.44;5081466;28;20033;-78
2024/01/02 01:41:11;;;;;;;34.58;17.15;;;;;;;-142.57;100.00;56004.13;5086463;28;20485;-77
2024/01/02 01:43:36;;;;;;;31.15;14.88;;;;;;;-142.57;100.00;56000.06;5084387;28;20032;-78
2024/01/02 01:46:03;;;;;;;47.38;13.48;;;;;;;-142.57;100.00;56008.16;5080169;28;20473;-78
2024/01/02 01:48:29;;;;;;;20.67;12.48;;;;;;;-142.57;100.00;56016.25;5073579;28;20036;-77
2024/01/02 01:50:55;;;;;;;33.78;12.57;;;;;;;-142.57;100.00;56008.16;5072190;28;20029;-78
2024/01/02 01:53:22;;;;;;;18.33;11.85;;;;;;;-142.57;100.00;55994.00;5085826;28;20020;-78
2024/01/02 01:55:48;;;;;;;22.20;12.40;;;;;;;-142.57;100.00;55959.66;5080515;28;20035;-78
2024/01/02 01:58:14;;;;;;;21.95;12.05;;;;;;;-142.57;100.00;55951.59;5078425;28;20028;-78
2024/01/02 02:00:40;;;;;;;24.65;12.98;;;;;;;-142.57;100.00;55971.78;5091020;28;20503;-78
2024/01/02 02:03:06;;;;;;;27.52;13.18;;;;;;;-142.57;100.00;55979.88;5079914;28;20044;-80
2024/01/02 02:05:33;;;;;;;24.42;13.30;;;;;;;-142.57;100.00;56004.13;4994534;28;20040;-78
2024/01/02 02:07:58;;;;;;;25.63;12.70;;;;;;;-142.57;100.00;55975.84;5046725;28;20040;-78
2024/01/02 02:10:24;;;;;;;29.23;13.27;;;;;;;-142.57;100.00;55957.66;5070052;28;20030;-78
2024/01/02 02:12:50;;;;;;;25.98;14.90;;;;;;;-142.57;100.00;55959.66;5063616;28;20388;-80
2024/01/02 02:15:16;;;;;;;38.80;17.05;;;;;;;-142.57;100.00;55971.78;5062266;28;20024;-80
2024/01/02 02:17:42;;;;;;;37.03;16.75;;;;;;;-142.57;100.00;55996.03;5056593;28;20036;-81
2024/01/02 02:20:08;;;;;;;33.05;16.98;;;;;;;-142.57;100.00;55994.00;5067558;28;20044;-80
2024/01/02 02:22:38;;;;;;;35.70;17.90;;;;;;;-142.57;100.00;56030.38;5051669;28;20032;-81
2024/01/02 02:25:06;;;;;;;41.13;18.88;;;;;;;-142.57;100.00;55973.81;5065585;28;20027;-80
2024/01/02 02:27:33;;;;;;;50.58;18.40;;;;;;;-142.57;100.00;55996.03;5061856;28;20033;-84
2024/01/02 02:29:59;;;;;;;45.53;19.15;;;;;;;-142.57;100.00;55969.78;5079982;28;20024;-82
2024/01/02 02:32:24;;;;;;;42.55;18.73;;;;;;;-142.57;100.00;55996.03;5064780;28;20043;-85
2024/01/02 02:34:52;;;;;;;62.35;17.38;;;;;;;-142.57;100.00;55987.94;5067837;28;20451;-84
2024/01/02 02:37:18;;;;;;;31.63;17.33;;;;;;;-142.57;100.00;55947.53;5070365;28;20035;-85
2024/01/02 02:39:44;;;;;;;38.38;17.05;;;;;;;-142.57;100.00;56004.13;5062618;28;20024;-85
2024/01/02 02:42:10;;;;;;;38.92;16.48;;;;;;;-142.57;100.00;56000.06;5066741;28;20036;-86
2024/01/02 02:44:35;;;;;;;40.97;16.13;;;;;;;-142.57;100.00;55987.94;5066309;28;20047;-80
2024/01/02 02:47:01;;;;;;;48.75;16.35;;;;;;;-142.57;100.00;56000.06;5050239;28;20028;-76
2024/01/02 02:49:27;;;;;;;53.20;17.25;;;;;;;-142.57;100.00;55985.94;5056978;28;20105;-79
2024/01/02 02:51:53;;;;;;;27.05;15.32;;;;;;;-142.57;100.00;56000.06;5067442;28;20434;-80
2024/01/02 02:54:18;;;;;;;49.92;16.10;;;;;;;-142.57;100.00;55947.53;5084774;28;20026;-79
2024/01/02 02:56:45;;;;;;;29.55;15.38;;;;;;;-142.57;100.00;55961.69;5060991;28;20036;-85
2024/01/02 02:59:11;;;;;;;33.58;15.82;;;;;;;-142.57;100.00;55955.63;5080105;28;20062;-85
2024/01/02 03:01:37;;;;;;;32.47;16.50;;;;;;;-142.57;100.00;55975.84;5066658;28;20044;-83
2024/01/02 03:04:02;;;;;;;34.28;16.17;;;;;;;-142.57;100.00;55981.88;5081662;28;20027;-82
2024/01/02 03:06:28;;;;;;;25.25;14.65;;;;;;;-142.57;100.00;56012.19;5056271;28;20036;-83
2024/01/02 03:08:54;;;;;;;34.53;14.98;;;;;;;-142.57;100.00;55998.06;5002845;28;21622;-86
2024/01/02 03:11:20;;;;;;;27.63;15.23;;;;;;;-142.57;100.00;56020.28;5025058;28;20096;-84
2024/01/02 03:13:45;;;;;;;31.38;14.88;;;;;;;-142.57;100.00;55973.81;5080316;28;20049;-82
2024/01/02 03:16:11;;;;;;;27.42;15.75;;;;;;;-142.57;100.00;56004.13;5064192;28;20514;-82
2024/01/02 03:18:37;;;;;;;30.23;15.98;;;;;;;-142.57;100.00;55947.53;5060266;28;20028;-80
2024/01/02 03:21:03;;;;;;;35.35;14.90;;;;;;;-142.57;100.00;55959.66;5067400;28;20036;-79
2024/01/02 03:23:28;;;;;;;39.22;15.80;;;;;;;-142.57;100.00;55925.31;5070758;28;20055;-78
2024/01/02 03:25:54;;;;;;;31.90;16.65;;;;;;;-142.57;100.00;55911.16;5063168;28;20028;-81
2024/01/02 03:28:19;;;;;;;28.13;16.60;;;;;;;-142.57;100.00;55975.84;5088912;28;20032;-81
2024/01/02 03:30:45;;;;;;;39.63;16.98;;;;;;;-142.57;100.00;55971.78;5077815;28;20561;-82
2024/01/02 03:33:10;;;;;;;32.13;16.63;;;;;;;-142.57;100.00;55973.81;5079595;28;20466;-81
2024/01/02 03:35:36;;;;;;;26.63;14.70;;;;;;;-142.57;100.00;55967.75;5073133;28;20032;-85
2024/01/02 03:38:02;;;;;;;33.22;14.20;;;;;;;-142.57;100.00;55943.50;5092209;28;20032;-80
2024/01/02 03:40:28;;;;;;;20.70;12.25;;;;;;;-142.57;100.00;55943.50;5027141;28;20028;-80
2024/01/02 03:42:54;;;;;;;20.75;12.23;;;;;;;-142.57;100.00;55961.69;5089121;28;20043;-84
2024/01/02 03:45:19;;;;;;;26.42;12.38;;;;;;;-142.57;100.00;55923.28;5018546;28;20036;-81
2024/01/02 03:47:45;;;;;;;18.98;11.70;;;;;;;-142.57;100.00;55913.19;5052330;28;20132;-77
2024/01/02 03:50:14;;;;;;;55.00;11.10;;;;;;;-142.57;100.00;55862.69;4999876;28;20124;-84
2024/01/02 03:52:40;;;;;;;30.75;10.65;;;;;;;-142.57;100.00;55868.72;5009179;28;20708;-86
2024/01/02 03:55:06;;;;;;;20.38;10.32;;;;;;;-142.57;100.00;55858.63;4998298;28;20139;-85
2024/01/02 03:57:34;;;;;;;23.05;10.50;;;;;;;-142.57;100.00;55854.59;4994098;28;20032;-85
2024/01/02 04:00:00;;;;;;;43.35;10.23;;;;;;;-142.57;100.00;55854.59;4993004;28;20078;-83
2024/01/02 04:02:25;;;;;;;41.13;11.25;;;;;;;-142.57;100.00;55826.31;5052858;28;20445;-82
2024/01/02 04:04:51;;;;;;;21.33;11.65;;;;;;;-142.57;100.00;55858.63;5081182;28;20140;-83
2024/01/02 04:07:17;;;;;;;24.45;10.85;;;;;;;-142.57;100.00;55899.03;5067847;28;20033;-83
2024/01/02 04:09:45;;;;;;;39.25;11.05;;;;;;;-142.57;100.00;55874.78;5070013;28;20040;-86
2024/01/02 04:12:10;;;;;;;24.90;11.23;;;;;;;-142.57;100.00;55892.97;5075189;28;20059;-79
2024/01/02 04:14:36;;;;;;;33.88;10.90;;;;;;;-142.57;100.00;55899.03;5074820;28;20428;-80
2024/01/02 04:17:01;;;;;;;32.58;10.65;;;;;;;-142.57;100.00;55899.03;5075643;28;20631;-78
2024/01/02 04:19:27;;;;;;;75.03;11.35;;;;;;;-142.57;100.00;55854.59;5057407;28;20032;-82
2024/01/02 04:21:52;;;;;;;66.60;11.65;;;;;;;-142.57;100.00;55814.19;5060241;28;20052;-80
2024/01/02 04:24:18;;;;;;;53.72;10.23;;;;;;;-142.57;100.00;55836.41;5069951;28;20113;-80
2024/01/02 04:26:43;;;;;;;33.05;10.90;;;;;;;-142.57;100.00;55824.28;5038004;28;20040;-79
2024/01/02 04:29:09;;;;;;;21.10;12.02;;;;;;;-142.57;100.00;55864.69;5044620;28;20102;-79
2024/01/02 04:31:34;;;;;;;24.80;12.20;;;;;;;-142.57;100.00;55878.84;5056232;28;20029;-81
2024/01/02 04:34:00;;;;;;;55.60;11.73;;;;;;;-142.57;100.00;55806.09;5037023;28;20048;-80
2024/01/02 04:36:26;;;;;;;20.73;11.43;;;;;;;-142.57;100.00;55840.44;5000807;28;20040;-78
2024/01/02 04:38:52;;;;;;;23.85;11.40;;;;;;;-142.57;100.00;55842.47;4995816;28;20389;-80
2024/01/02 04:41:18;;;;;;;16.10;10.60;;;;;;;-142.57;100.00;55858.63;4989670;28;20060;-80
2024/01/02 04:43:44;;;;;;;43.65;9.48;;;;;;;-142.57;100.00;55858.63;5075156;28;20488;-80
2024/01/02 04:46:10;;;;;;;51.58;10.20;;;;;;;-142.57;100.00;55810.13;5002663;28;20099;-81
2024/01/02 04:48:36;;;;;;;26.08;10.57;;;;;;;-142.57;100.00;55854.59;4992357;28;20068;-80
2024/01/02 04:51:02;;;;;;;18.48;10.52;;;;;;;-142.57;100.00;55897.03;4987881;28;20043;-81
2024/01/02 04:53:27;;;;;;;20.88;9.90;;;;;;;-142.57;100.00;55802.06;4989919;28;20076;-81
2024/01/02 04:55:53;;;;;;;21.42;10.50;;;;;;;-142.57;100.00;55810.13;4992330;28;20046;-81
2024/01/02 04:58:19;;;;;;;14.90;9.82;;;;;;;-142.57;100.00;55800.03;4989366;28;21737;-80
2024/01/02 05:00:45;;;;;;;32.30;10.23;;;;;;;-142.57;100.00;55735.38;4989571;28;20114;-80
2024/01/02 05:03:11;;;;;;;19.80;10.18;;;;;;;-142.57;100.00;55808.13;4988574;28;20423;-80
2024/01/02 05:05:36;;;;;;;14.35;9.40;;;;;;;-142.57;100.00;55810.13;4989132;28;20133;-81
2024/01/02 05:08:02;;;;;;;14.70;9.35;;;;;;;-142.57;100.00;55814.19;4985635;28;20686;-80
2024/01/02 05:10:28;;;;;;;15.52;9.45;;;;;;;-142.57;100.00;55836.41;4990732;28;20036;-78
2024/01/02 05:12:54;;;;;;;23.83;9.27;;;;;;;-142.57;100.00;55846.50;4995056;28;20082;-81
2024/01/02 05:15:20;;;;;;;23.92;9.88;;;;;;;-142.57;100.00;55789.94;4988353;28;20032;-79
2024/01/02 05:17:45;;;;;;;15.57;9.80;;;;;;;-142.57;100.00;55765.69;4989405;28;20068;-79
2024/01/02 05:20:11;;;;;;;19.38;9.95;;;;;;;-142.57;100.00;55800.03;4988123;28;20124;-80
2024/01/02 05:22:37;;;;;;;21.38;9.82;;;;;;;-142.57;100.00;55761.66;4991798;28;20071;-79
2024/01/02 05:25:03;;;;;;;21.65;9.90;;;;;;;-142.57;100.00;55749.53;5024057;28;20103;-80
2024/01/02 05:27:28;;;;;;;21.70;10.77;;;;;;;-142.57;100.00;55755.59;5065227;28;20039;-82
2024/01/02 05:29:54;;;;;;;16.58;10.48;;;;;;;-142.57;100.00;55802.06;5081542;28;20488;-80
2024/01/02 05:32:19;;;;;;;15.40;10.00;;;;;;;-142.57;100.00;55777.81;5075177;28;20040;-81
2024/01/02 05:34:44;;;;;;;18.13;10.18;;;;;;;-142.57;100.00;55810.13;5075605;28;20028;-80
2024/01/02 05:37:10;;;;;;;17.08;10.45;;;;;;;-142.57;100.00;55814.19;5067494;28;20024;-83
2024/01/02 05:39:35;;;;;;;17.00;10.30;;;;;;;-142.57;100.00;55858.63;4992770;28;20033;-80
2024/01/02 05:42:01;;;;;;;18.58;10.65;;;;;;;-142.57;100.00;55810.13;4991258;28;20149;-80
2024/01/02 05:44:26;;;;;;;14.85;9.57;;;;;;;-142.57;100.00;55814.19;4987262;28;20040;-80
2024/01/02 05:46:52;;;;;;;17.17;10.27;;;;;;;-142.57;100.00;55876.81;4991175;28;20028;-80
2024/01/02 05:49:17;;;;;;;14.85;9.38;;;;;;;-142.57;100.00;55852.56;5080902;28;20473;-79
2024/01/02 05:51:43;;;;;;;16.55;10.18;;;;;;;-142.57;100.00;55854.59;5091444;28;20408;-80
2024/01/02 05:54:08;;;;;;;35.42;11.80;;;;;;;-142.57;100.00;55818.22;5066984;28;20031;-81
2024/01/02 05:56:34;;;;;;;25.83;11.98;;;;;;;-142.57;100.00;55856.63;5071727;28;20138;-79
2024/01/02 05:58:59;;;;;;;30.00;12.48;;;;;;;-142.57;100.00;55846.50;5041141;28;20046;-82
2024/01/02 06:01:25;;;;;;;33.90;12.40;;;;;;;-142.57;100.00;55884.91;5039704;28;21942;-79
2024/01/02 06:03:51;;;;;;;25.17;11.95;;;;;;;-142.57;100.00;55870.75;4988932;28;20052;-80
2024/01/02 06:06:16;;;;;;;24.00;12.60;;;;;;;-142.57;100.00;55838.44;4989231;28;21460;-80
2024/01/02 06:08:42;;;;;;;33.65;13.00;;;;;;;-142.57;100.00;55897.03;4985579;28;20169;-80
2024/01/02 06:11:10;;;;;;;22.98;12.40;;;;;;;-142.57;100.00;55860.66;5032463;28;20094;-81
2024/01/02 06:13:36;;;;;;;24.02;11.98;;;;;;;-142.57;100.00;55874.78;5078690;28;20068;-80
2024/01/02 06:16:01;;;;;;;19.25;12.48;;;;;;;-142.57;100.00;55862.69;5006295;28;20169;-80
2024/01/02 06:18:27;;;;;;;23.48;12.95;;;;;;;-142.57;100.00;55850.56;4991598;28;20044;-80
2024/01/02 06:20:52;;;;;;;22.45;13.45;;;;;;;-142.57;100.00;55854.59;4990516;28;20497;-82
2024/01/02 06:23:18;;;;;;;30.98;13.38;;;;;;;-142.57;100.00;55850.56;4985733;28;20047;-82
2024/01/02 06:25:43;;;;;;;41.90;14.82;;;;;;;-142.57;100.00;55886.91;5060894;28;21604;-79
2024/01/02 06:28:09;;;;;;;75.28;14.68;;;;;;;-142.57;100.00;55866.72;5012274;28;20040;-81
2024/01/02 06:30:34;;;;;;;33.70;14.82;;;;;;;-142.57;100.00;55868.72;4989415;28;20047;-79
2024/01/02 06:33:00;;;;;;;28.55;13.05;;;;;;;-142.57;100.00;55870.75;4973407;28;20472;-81
2024/01/02 06:35:25;;;;;;;44.75;14.95;;;;;;;-142.57;100.00;55886.91;4991528;28;20054;-78
2024/01/02 06:37:51;;;;;;;46.97;14.68;;;;;;;-142.57;100.00;55890.97;4995041;28;20505;-78
2024/01/02 06:40:16;;;;;;;78.93;15.25;;;;;;;-142.57;100.00;55854.59;4991018;28;20566;-79
2024/01/02 06:42:42;;;;;;;66.22;13.90;;;;;;;-142.57;100.00;55848.53;4993091;28;20041;-80
2024/01/02 06:45:08;;;;;;;37.55;14.20;;;;;;;-142.57;100.00;55864.69;4994652;28;20032;-80
2024/01/02 06:47:34;;;;;;;26.05;13.93;;;;;;;-142.57;100.00;55858.63;4995465;28;20345;-79
2024/01/02 06:49:59;;;;;;;33.97;14.50;;;;;;;-142.57;100.00;55882.88;4988950;28;21770;-80
2024/01/02 06:52:25;;;;;;;62.55;15.93;;;;;;;-142.57;100.00;55870.75;4992539;28;20098;-80
2024/01/02 06:54:50;;;;;;;31.45;12.60;;;;;;;-142.57;100.00;55834.38;4997121;28;20057;-82
2024/01/02 06:57:16;;;;;;;28.58;12.48;;;;;;;-142.57;100.00;55854.59;5025774;28;20035;-82
2024/01/02 06:59:44;;;;;;;34.97;13.20;;;;;;;-142.57;100.00;55876.81;5027014;28;20401;-81
2024/01/02 07:02:09;;;;;;;29.88;12.80;;;;;;;-142.57;100.00;55862.69;4996084;28;20036;-81
2024/01/02 07:04:37;;;;;;;28.67;12.48;;;;;;;-142.57;100.00;55939.47;4993708;28;20044;-80
2024/01/02 07:07:02;;;;;;;30.10;13.27;;;;;;;-142.57;100.00;55876.81;4990583;28;20048;-83
2024/01/02 07:09:28;;;;;;;48.10;14.38;;;;;;;-142.57;100.00;55923.28;5055537;28;20029;-85
2024/01/02 07:11:53;;;;;;;29.85;13.32;;;;;;;-142.57;100.00;55866.72;5082155;28;20056;-81
2024/01/02 07:14:19;;;;;;;49.22;14.65;;;;;;;-142.57;100.00;55856.63;5087237;28;20086;-80
2024/01/02 07:16:44;;;;;;;23.25;13.90;;;;;;;-142.57;100.00;55856.63;5083010;28;20042;-81
2024/01/02 07:19:10;;;;;;;23.13;13.52;;;;;;;-142.57;100.00;55862.69;5075703;28;20393;-80
2024/01/02 07:21:35;;;;;;;34.25;14.43;;;;;;;-142.57;100.00;55852.56;5053655;28;20036;-79
2024/01/02 07:24:01;;;;;;;37.38;14.55;;;;;;;-142.57;100.00;55822.25;4988870;28;20077;-80
2024/01/02 07:26:26;;;;;;;52.90;16.25;;;;;;;-142.57;100.00;55781.84;4991270;28;20066;-79
2024/01/02 07:28:52;;;;;;;30.73;15.57;;;;;;;-142.57;100.00;55870.75;5000562;28;20116;-80
2024/01/02 07:31:18;;;;;;;32.55;15.77;;;;;;;-142.57;100.00;55874.78;5021156;28;21390;-81
2024/01/02 07:33:45;;;;;;;62.50;15.55;;;;;;;-142.57;100.00;55826.31;5082462;28;20048;-80
2024/01/02 07:36:10;;;;;;;31.25;15.23;;;;;;;-142.57;100.00;55858.63;5082762;28;20032;-81
2024/01/02 07:38:36;;;;;;;27.45;15.02;;;;;;;-142.57;100.00;55890.97;5075603;28;20029;-82
2024/01/02 07:41:03;;;;;;;27.75;15.00;;;;;;;-142.57;100.00;55890.97;5061471;28;20024;-81
2024/01/02 07:43:30;;;;;;;33.92;15.38;;;;;;;-142.57;100.00;55874.78;5084721;28;20035;-82
2024/01/02 07:45:57;;;;;;;38.55;15.25;;;;;;;-142.57;100.00;55854.59;4997998;28;20068;-82
2024/01/02 07:48:22;;;;;;;54.97;16.35;;;;;;;-142.57;100.00;55824.28;4995073;28;20123;-80
2024/01/02 07:50:48;;;;;;;29.88;15.38;;;;;;;-142.57;100.00;55826.31;4989380;28;20396;-80
2024/01/02 07:53:19;;;;;;;36.00;15.13;;;;;;;-142.57;100.00;55838.44;4989813;28;20044;-81
2024/01/02 07:55:47;;;;;;;41.63;16.65;;;;;;;-142.57;100.00;55848.53;5062809;28;20036;-80
2024/01/02 07:58:12;;;;;;;49.58;15.15;;;;;;;-142.57;100.00;55838.44;5073972;28;20020;-80
2024/01/02 08:00:38;;;;;;;31.70;15.18;;;;;;;-142.57;100.00;55838.44;5028923;28;20055;-82
2024/01/02 08:03:04;;;;;;;34.55;14.85;;;;;;;-142.57;100.00;55874.78;4994094;28;20040;-83
2024/01/02 08:05:29;;;;;;;29.83;15.50;;;;;;;-142.57;100.00;55915.22;4990395;28;20472;-84
2024/01/02 08:07:55;;;;;;;32.38;15.73;;;;;;;-142.57;100.00;55858.63;4991956;28;20039;-81
2024/01/02 08:10:20;;;;;;;26.55;14.73;;;;;;;-142.57;100.00;55846.50;5055480;28;20062;-80
2024/01/02 08:12:45;;;;;;;24.73;15.60;;;;;;;-142.57;100.00;55890.97;5079786;28;20071;-82
2024/01/02 08:15:12;;;;;;;28.20;14.50;;;;;;;-142.57;100.00;55911.16;5060795;28;20413;-82
2024/01/02 08:17:37;;;;;;;21.70;12.60;;;;;;;-142.57;100.00;55862.69;4994264;28;20120;-79
2024/01/02 08:20:04;;;;;;;25.48;14.15;;;;;;;-142.57;100.00;55862.69;4989489;28;20028;-82
2024/01/02 08:22:29;;;;;;;24.10;14.23;;;;;;;-142.57;100.00;55882.88;4994580;28;20036;-81
2024/01/02 08:24:55;;;;;;;27.20;13.85;;;;;;;-142.57;100.00;55905.09;5010987;28;20393;-82
2024/01/02 08:27:24;;;;;;;21.92;13.05;;;;;;;-142.57;100.00;55907.13;5072460;28;20039;-83
2024/01/02 08:29:49;;;;;;;28.38;13.93;;;;;;;-142.57;100.00;55915.22;5074070;28;20033;-82
2024/01/02 08:32:15;;;;;;;22.23;13.25;;;;;;;-142.57;100.00;55884.91;4993145;28;20384;-83
2024/01/02 08:34:40;;;;;;;24.73;13.10;;;;;;;-142.57;100.00;55903.09;4997314;28;20126;-82
2024/01/02 08:37:06;;;;;;;23.65;12.60;;;;;;;-142.57;100.00;55886.91;4992650;28;21664;-82
2024/01/02 08:39:32;;;;;;;21.60;12.73;;;;;;;-142.57;100.00;55913.19;5005268;28;20370;-81
2024/01/02 08:41:57;;;;;;;25.13;13.43;;;;;;;-142.57;100.00;55856.63;5071470;28;20033;-83
2024/01/02 08:44:23;;;;;;;22.25;12.75;;;;;;;-142.57;100.00;55899.03;5076474;28;20089;-83
2024/01/02 08:46:48;;;;;;;20.75;13.02;;;;;;;-142.57;100.00;55923.28;5008348;28;20040;-81
2024/01/02 08:49:14;;;;;;;20.30;12.60;;;;;;;-142.57;100.00;55903.09;4991323;28;20055;-84
2024/01/02 08:51:39;;;;;;;24.75;14.48;;;;;;;-142.57;100.00;55911.16;4994391;28;20052;-82
2024/01/02 08:54:05;;;;;;;26.45;15.50;;;;;;;-142.57;100.00;55915.22;4991103;28;21874;-83
2024/01/02 08:56:30;;;;;;;44.60;15.13;;;;;;;-142.57;100.00;55927.34;4986816;28;20036;-80
2024/01/02 08:58:56;;;;;;;29.95;15.50;;;;;;;-142.57;100.00;55927.34;4987972;28;20050;-85
2024/01/02 09:01:21;;;;;;;31.52;16.25;;;;;;;-142.57;100.00;55917.22;4995034;28;20063;-81
2024/01/02 09:03:47;;;;;;;25.90;14.25;;;;;;;-142.57;100.00;55967.75;4990481;28;20124;-83
2024/01/02 09:06:17;;;;;;;29.20;15.25;;;;;;;-142.57;100.00;55947.53;4990088;28;20489;-81
2024/01/02 09:08:43;;;;;;;26.52;15.15;;;;;;;-142.57;100.00;55981.88;4993286;28;20072;-82
2024/01/02 09:11:12;;;;;;;28.88;15.65;;;;;;;-142.57;100.00;55947.53;5016692;28;20036;-84
2024/01/02 09:13:38;;;;;;;33.90;16.88;;;;;;;-142.57;100.00;55951.59;5034626;28;20028;-82
2024/01/02 09:16:04;;;;;;;29.73;16.60;;;;;;;-142.57;100.00;55890.97;5078628;28;20031;-85
2024/01/02 09:18:30;;;;;;;29.50;17.15;;;;;;;-142.57;100.00;55951.59;4993012;28;20971;-84
2024/01/02 09:20:57;;;;;;;32.25;16.58;;;;;;;-142.57;100.00;55915.22;4994587;28;20489;-83
2024/01/02 09:23:23;;;;;;;32.42;17.23;;;;;;;-142.57;100.00;55951.59;4996103;28;20075;-83
2024/01/02 09:25:49;;;;;;;32.90;17.88;;;;;;;-142.57;100.00;55943.50;5010382;28;20056;-84
2024/01/02 09:28:16;;;;;;;32.08;17.35;;;;;;;-142.57;100.00;55998.06;5070398;28;20032;-85
2024/01/02 09:30:43;;;;;;;26.65;15.65;;;;;;;-142.57;100.00;55983.91;5055002;28;20082;-84
2024/01/02 09:33:09;;;;;;;30.35;17.90;;;;;;;-142.57;100.00;55933.41;4989714;28;21476;-81
2024/01/02 09:35:36;;;;;;;28.60;16.55;;;;;;;-142.57;100.00;56020.28;4993145;28;20040;-85
2024/01/02 09:38:02;;;;;;;29.83;17.58;;;;;;;-142.57;100.00;55967.75;4990936;28;20062;-85
2024/01/02 09:40:37;;;;;;;35.55;18.67;;;;;;;-142.57;100.00;55929.34;5028247;28;20056;-84
2024/01/02 09:43:14;;;;;;;28.02;16.27;;;;;;;-142.57;100.00;55939.47;5029595;28;20092;-83
2024/01/02 09:45:56;;;;;;;31.15;17.20;;;;;;;-142.57;100.00;55977.84;5032337;28;20029;-83
2024/01/02 09:48:54;;;;;;;27.25;15.52;;;;;;;-142.57;100.00;55951.59;4994531;28;20112;-82
2024/01/02 09:51:47;;;;;;;29.38;15.70;;;;;;;-142.57;100.00;55935.41;4997637;28;20081;-82
2024/01/02 09:54:29;;;;;;;26.58;16.25;;;;;;;-142.57;100.00;55919.25;5010848;28;20033;-83
2024/01/02 09:57:10;;;;;;;29.70;16.27;;;;;;;-142.57;100.00;55935.41;5067269;28;20032;-84
2024/01/02 09:59:42;;;;;;;27.27;15.85;;;;;;;-142.57;100.00;55981.88;5060440;28;20424;-82
2024/01/02 10:02:43;;;;;;;26.63;15.30;;;;;;;-142.57;100.00;55955.63;4988073;28;22432;-83
2024/01/02 10:05:24;;;;;;;25.00;14.05;;;;;;;-142.57;100.00;55994.00;4988432;28;20044;-82
2024/01/02 10:07:55;;;;;;;22.77;12.73;;;;;;;-142.57;100.00;56014.22;4986635;28;20024;-81
2024/01/02 10:10:33;;;;;;;24.38;13.77;;;;;;;-142.57;100.00;55963.72;5032035;28;20481;-83
2024/01/02 10:13:10;;;;;;;24.42;13.52;;;;;;;-142.57;100.00;56012.19;5035417;28;20127;-81
2024/01/02 10:15:51;;;;;;;26.92;15.52;;;;;;;-142.57;100.00;55975.84;5043852;28;20025;-81
2024/01/02 10:19:01;;;;;;;30.73;14.65;;;;;;;-142.57;100.00;56012.19;5075894;28;20040;-80
2024/01/02 10:22:11;;;;;;;29.52;15.55;;;;;;;-142.57;100.00;56022.31;5009609;28;21428;-82
2024/01/02 10:24:46;;;;;;;26.67;15.38;;;;;;;-142.57;100.00;56002.09;4999920;28;21143;-80
2024/01/02 10:27:16;;;;;;;27.40;15.30;;;;;;;-142.57;100.00;56012.19;5026461;28;20566;-86
2024/01/02 10:29:56;;;;;;;29.50;16.02;;;;;;;-142.57;100.00;55987.94;5056854;28;20059;-86
2024/01/02 10:32:56;;;;;;;30.48;16.30;;;;;;;-142.57;100.00;56064.75;5009137;28;20194;-80
2024/01/02 10:35:36;;;;;;;28.05;14.63;;;;;;;-142.57;100.00;56032.41;5023117;28;20381;-79
2024/01/02 10:38:15;;;;;;;27.58;15.00;;;;;;;-142.57;100.00;56004.13;5011474;28;20055;-79
2024/01/02 10:40:46;;;;;;;34.65;16.80;;;;;;;-142.57;100.00;56016.25;5050056;28;20528;-81
2024/01/02 10:43:14;;;;;;;33.58;17.50;;;;;;;-142.57;100.00;56078.88;5047851;28;20608;-80
2024/01/02 10:45:52;;;;;;;32.97;17.40;;;;;;;-142.57;100.00;56068.78;5077576;28;20056;-81
2024/01/02 10:48:32;;;;;;;34.05;17.67;;;;;;;-142.57;100.00;56062.72;5077423;28;20028;-81
2024/01/02 10:51:10;;;;;;;30.48;17.20;;;;;;;-142.57;100.00;56072.81;5066734;28;20055;-82
2024/01/02 10:53:51;;;;;;;30.92;17.15;;;;;;;-142.57;100.00;56052.63;5074695;28;20020;-81
2024/01/02 10:56:40;;;;;;;40.72;16.67;;;;;;;-142.57;100.00;56040.50;5079316;28;20493;-82